Carmi, Illinois
Current Conditions -  °F | °C
As of 6:38 AM on Tuesday 27 Jan 2015 (Local Time) from KCUL Reporting Station
Haze Haze  
Wind Chill: 29°   Ceiling: 2300
Heat Index: 34°   Visibility: 5mi
Dew Point: 34°   Wind: 6mph
Humidity: 100%   Direction: 300°WNW
Pressure: 30.01"   Gusts: NA
Location:  38.09°N, 88.17°W
Report Text: KCUL 271238Z AUTO 30005KT 5SM BR OVC023 01/01 A3001 RMK AO2
Loading
Personal Weather Stations






























Interactive Weather Map New forecast layout! Learn more

10-Day Weather Forecast

Advertisements
Track Severe Weather on mobile